createdAt,value
2023-11-24T00:00:39.769Z,4.90
2023-11-24T00:03:08.182Z,4.91
2023-11-24T00:05:34.929Z,4.84
2023-11-24T00:08:04.427Z,4.77
2023-11-24T00:10:33.471Z,4.75
2023-11-24T00:13:00.023Z,4.73
2023-11-24T00:15:27.256Z,4.77
2023-11-24T00:17:57.275Z,4.76
2023-11-24T00:20:27.537Z,4.79
2023-11-24T00:22:54.093Z,4.86
2023-11-24T00:25:20.581Z,4.81
2023-11-24T00:27:47.224Z,4.53
2023-11-24T00:30:15.042Z,4.37
2023-11-24T00:32:42.711Z,3.82
2023-11-24T00:35:09.324Z,3.45
2023-11-24T00:37:38.663Z,3.28
2023-11-24T00:40:09.570Z,3.10
2023-11-24T00:42:36.737Z,2.90
2023-11-24T00:45:12.049Z,2.79
2023-11-24T00:47:39.935Z,2.80
2023-11-24T00:50:07.335Z,2.80
2023-11-24T00:52:33.937Z,2.68
2023-11-24T00:55:00.489Z,2.42
2023-11-24T00:57:27.061Z,2.35
2023-11-24T00:59:53.611Z,2.19
2023-11-24T01:02:20.072Z,2.22
2023-11-24T01:04:51.814Z,2.24
2023-11-24T01:07:18.260Z,2.28
2023-11-24T01:09:45.966Z,2.18
2023-11-24T01:12:13.545Z,2.24
2023-11-24T01:14:39.982Z,2.24
2023-11-24T01:17:06.772Z,2.25
2023-11-24T01:19:33.498Z,2.16
2023-11-24T01:22:00.228Z,2.06
2023-11-24T01:24:27.384Z,2.04
2023-11-24T01:26:55.933Z,2.05
2023-11-24T01:29:22.440Z,1.95
2023-11-24T01:31:48.940Z,1.99
2023-11-24T01:34:15.989Z,2.00
2023-11-24T01:36:47.524Z,2.07
2023-11-24T01:39:16.615Z,2.06
2023-11-24T01:41:43.213Z,2.14
2023-11-24T01:44:12.507Z,2.20
2023-11-24T01:46:40.315Z,2.17
2023-11-24T01:49:06.808Z,2.22
2023-11-24T01:51:33.286Z,2.32
2023-11-24T01:53:59.822Z,2.42
2023-11-24T01:56:27.032Z,2.47
2023-11-24T01:58:57.543Z,2.54
2023-11-24T02:01:25.278Z,2.56
2023-11-24T02:03:52.182Z,2.56
2023-11-24T02:06:18.782Z,2.46
2023-11-24T02:08:47.148Z,2.54
2023-11-24T02:11:15.181Z,2.46
2023-11-24T02:13:41.604Z,2.48
2023-11-24T02:16:09.873Z,2.51
2023-11-24T02:18:36.505Z,2.54
2023-11-24T02:21:03.767Z,2.54
2023-11-24T02:23:35.641Z,2.49
2023-11-24T02:26:02.614Z,2.54
2023-11-24T02:28:29.098Z,2.58
2023-11-24T02:31:02.355Z,2.61
2023-11-24T02:33:29.422Z,2.83
2023-11-24T02:35:56.026Z,2.95
2023-11-24T02:38:23.793Z,2.97
2023-11-24T02:40:51.799Z,2.98
2023-11-24T02:43:18.296Z,3.03
2023-11-24T02:45:46.089Z,3.08
2023-11-24T02:48:13.185Z,3.07
2023-11-24T02:50:39.696Z,3.08
2023-11-24T02:53:06.178Z,3.05
2023-11-24T02:55:34.194Z,3.03
2023-11-24T02:58:02.310Z,3.05
2023-11-24T03:00:29.970Z,3.09
2023-11-24T03:03:03.346Z,3.02
2023-11-24T03:05:30.680Z,3.11
2023-11-24T03:07:57.144Z,3.02
2023-11-24T03:10:24.719Z,2.96
2023-11-24T03:12:51.728Z,2.99
2023-11-24T03:15:18.240Z,2.97
2023-11-24T03:17:44.741Z,2.95
2023-11-24T03:20:13.865Z,2.93
2023-11-24T03:22:41.045Z,2.91
2023-11-24T03:25:08.909Z,2.87
2023-11-24T03:27:35.533Z,2.87
2023-11-24T03:30:02.575Z,2.85
2023-11-24T03:32:30.647Z,2.82
2023-11-24T03:34:57.172Z,2.76
2023-11-24T03:37:23.581Z,2.75
2023-11-24T03:39:50.092Z,2.73
2023-11-24T03:42:16.553Z,2.67
2023-11-24T03:44:42.980Z,2.62
2023-11-24T03:47:09.449Z,2.65
2023-11-24T03:49:35.940Z,2.60
2023-11-24T03:52:02.664Z,2.62
2023-11-24T03:54:29.220Z,2.63
2023-11-24T03:56:55.663Z,2.68
2023-11-24T03:59:22.193Z,2.63
2023-11-24T04:01:48.849Z,2.64
2023-11-24T04:04:15.512Z,2.58
2023-11-24T04:06:42.083Z,2.62
2023-11-24T04:09:09.030Z,2.72
2023-11-24T04:11:36.616Z,2.72
2023-11-24T04:14:03.436Z,2.70
2023-11-24T04:16:31.636Z,2.69
2023-11-24T04:18:58.234Z,2.65
2023-11-24T04:21:24.724Z,2.70
2023-11-24T04:23:52.607Z,2.65
2023-11-24T04:26:21.442Z,2.61
2023-11-24T04:28:50.930Z,2.64
2023-11-24T04:31:17.777Z,2.64
2023-11-24T04:33:46.463Z,2.63
2023-11-24T04:36:13.055Z,2.60
2023-11-24T04:38:39.668Z,2.56
2023-11-24T04:41:07.203Z,2.53
2023-11-24T04:43:33.681Z,2.46
2023-11-24T04:46:00.539Z,2.43
2023-11-24T04:48:27.179Z,2.39
2023-11-24T04:50:56.647Z,2.41
2023-11-24T04:53:25.346Z,2.47
2023-11-24T04:55:51.780Z,2.48
2023-11-24T04:58:22.210Z,2.43
2023-11-24T05:00:48.739Z,2.49
2023-11-24T05:03:16.337Z,2.61
2023-11-24T05:05:42.847Z,2.60
2023-11-24T05:08:09.445Z,2.62
2023-11-24T05:10:41.455Z,2.62
2023-11-24T05:16:02.103Z,2.66
2023-11-24T05:18:28.768Z,2.62
2023-11-24T05:20:57.113Z,2.61
2023-11-24T05:23:34.476Z,2.58
2023-11-24T05:26:02.616Z,2.52
2023-11-24T05:28:29.129Z,2.46
2023-11-24T05:31:04.458Z,2.46
2023-11-24T05:33:37.031Z,2.47
2023-11-24T05:36:10.974Z,2.49
2023-11-24T05:38:40.295Z,2.46
2023-11-24T05:41:07.138Z,2.42
2023-11-24T05:43:33.642Z,2.43
2023-11-24T05:46:00.267Z,2.47
2023-11-24T05:48:29.727Z,2.45
2023-11-24T05:50:57.555Z,2.45
2023-11-24T05:53:24.159Z,2.62
2023-11-24T05:55:50.989Z,2.74
2023-11-24T05:58:18.406Z,2.62
2023-11-24T06:00:45.134Z,2.62
2023-11-24T06:03:11.722Z,2.57
2023-11-24T06:05:38.297Z,2.61
2023-11-24T06:08:06.108Z,2.56
2023-11-24T06:10:32.784Z,2.60
2023-11-24T06:12:59.479Z,2.63
2023-11-24T06:15:27.233Z,2.56
2023-11-24T06:17:55.503Z,2.59
2023-11-24T06:20:22.066Z,2.58
2023-11-24T06:22:49.163Z,2.58
2023-11-24T06:25:16.529Z,2.51
2023-11-24T06:27:43.899Z,2.48
2023-11-24T06:30:10.819Z,2.43
2023-11-24T06:32:37.988Z,2.30
2023-11-24T06:35:07.828Z,2.08
2023-11-24T06:37:34.526Z,1.99
2023-11-24T06:40:04.283Z,1.79
2023-11-24T06:42:34.456Z,1.47
2023-11-24T06:45:01.036Z,1.29
2023-11-24T06:47:28.051Z,1.07
2023-11-24T06:49:54.646Z,0.87
2023-11-24T06:52:21.125Z,0.88
2023-11-24T06:54:47.635Z,0.87
2023-11-24T06:57:16.749Z,0.94
2023-11-24T06:59:44.819Z,0.97
2023-11-24T07:02:11.422Z,1.03
2023-11-24T07:04:38.636Z,0.99
2023-11-24T07:07:07.905Z,1.07
2023-11-24T07:09:34.435Z,1.04
2023-11-24T07:12:00.944Z,0.84
2023-11-24T07:14:27.858Z,0.82
2023-11-24T07:16:54.310Z,0.79
2023-11-24T07:19:23.085Z,0.85
2023-11-24T07:21:49.824Z,0.81
2023-11-24T07:24:16.652Z,0.81
2023-11-24T07:26:43.097Z,0.77
2023-11-24T07:29:09.630Z,0.78
2023-11-24T07:31:38.657Z,0.84
2023-11-24T07:34:05.500Z,0.89
2023-11-24T07:36:32.411Z,0.96
2023-11-24T07:39:00.337Z,0.98
2023-11-24T07:41:26.879Z,0.91
2023-11-24T07:43:53.456Z,0.87
2023-11-24T07:46:20.276Z,0.86
2023-11-24T07:48:46.879Z,0.92
2023-11-24T07:51:13.367Z,0.96
2023-11-24T07:53:39.890Z,0.97
2023-11-24T07:56:06.650Z,0.99
2023-11-24T07:58:33.133Z,1.00
2023-11-24T08:01:01.474Z,1.00
2023-11-24T08:03:29.858Z,0.99
2023-11-24T08:05:59.171Z,1.03
2023-11-24T08:08:25.770Z,1.05
2023-11-24T08:10:52.434Z,1.04
2023-11-24T08:13:20.536Z,1.04
2023-11-24T08:15:48.403Z,1.08
2023-11-24T08:18:17.221Z,1.09
2023-11-24T08:20:43.885Z,1.09
2023-11-24T08:23:12.060Z,1.13
2023-11-24T08:25:38.550Z,1.18
2023-11-24T08:28:05.859Z,1.19
2023-11-24T08:30:33.697Z,1.17
2023-11-24T08:33:00.676Z,1.20
2023-11-24T08:35:27.185Z,1.27
2023-11-24T08:37:53.629Z,1.30
2023-11-24T08:40:23.261Z,1.32
2023-11-24T08:42:49.872Z,1.34
2023-11-24T08:45:18.216Z,1.35
2023-11-24T08:47:45.211Z,1.35
2023-11-24T08:50:14.462Z,1.34
2023-11-24T08:52:42.553Z,1.35
2023-11-24T08:55:09.620Z,1.33
2023-11-24T08:57:36.409Z,1.26
2023-11-24T09:00:03.031Z,1.22
2023-11-24T09:02:31.286Z,1.28
2023-11-24T09:04:57.940Z,1.36
2023-11-24T09:07:24.426Z,1.45
2023-11-24T09:09:51.104Z,1.54
2023-11-24T09:12:20.401Z,1.46
2023-11-24T09:14:47.156Z,1.52
2023-11-24T09:17:14.429Z,1.61
2023-11-24T09:19:40.969Z,1.64
2023-11-24T09:22:07.601Z,1.50
2023-11-24T09:24:34.944Z,1.25
2023-11-24T09:27:04.037Z,1.23
2023-11-24T09:29:30.487Z,1.18
2023-11-24T09:31:59.360Z,1.16
2023-11-24T09:34:27.801Z,1.10
2023-11-24T09:36:54.704Z,1.04
2023-11-24T09:39:26.403Z,0.95
2023-11-24T09:41:54.099Z,0.99
2023-11-24T09:44:20.550Z,0.97
2023-11-24T09:46:51.824Z,1.00
2023-11-24T09:49:19.446Z,1.53
2023-11-24T09:51:45.944Z,2.31
2023-11-24T09:54:12.608Z,2.97
2023-11-24T09:56:44.057Z,3.27
2023-11-24T09:59:10.663Z,3.51
2023-11-24T10:01:40.750Z,3.42
2023-11-24T10:04:07.321Z,3.70
2023-11-24T10:06:34.598Z,3.66
2023-11-24T10:09:01.102Z,3.93
2023-11-24T10:11:30.500Z,4.56
2023-11-24T10:13:57.474Z,4.75
2023-11-24T10:16:24.127Z,5.23
2023-11-24T10:18:51.273Z,4.97
2023-11-24T10:21:27.438Z,5.07
2023-11-24T10:23:58.613Z,5.38
2023-11-24T10:26:27.092Z,5.56
2023-11-24T10:28:53.887Z,5.85
2023-11-24T10:31:21.216Z,5.70
2023-11-24T10:33:47.976Z,6.15
2023-11-24T10:36:19.679Z,6.20
2023-11-24T10:38:46.260Z,6.36
2023-11-24T10:41:20.478Z,5.69
2023-11-24T10:43:50.486Z,5.96
2023-11-24T10:46:17.673Z,5.77
2023-11-24T10:49:02.894Z,5.18
2023-11-24T10:51:49.901Z,5.35
2023-11-24T10:54:27.085Z,5.14
2023-11-24T10:56:53.614Z,4.76
2023-11-24T10:59:21.018Z,4.20
2023-11-24T11:01:47.920Z,4.02
2023-11-24T11:04:15.482Z,3.58
2023-11-24T11:07:00.713Z,3.77
2023-11-24T11:09:43.903Z,4.35
2023-11-24T11:12:30.933Z,4.84
2023-11-24T11:14:57.696Z,4.90
2023-11-24T11:17:26.418Z,5.08
2023-11-24T11:20:08.397Z,5.29
2023-11-24T11:22:35.533Z,5.42
2023-11-24T11:25:14.768Z,5.62
2023-11-24T11:27:43.096Z,5.70
2023-11-24T11:30:27.553Z,5.56
2023-11-24T11:33:03.693Z,5.86
2023-11-24T11:35:30.257Z,5.89
2023-11-24T11:38:00.611Z,6.27
2023-11-24T11:40:34.327Z,5.93
2023-11-24T11:43:06.539Z,5.41
2023-11-24T11:45:34.311Z,5.61
2023-11-24T11:48:05.011Z,5.59
2023-11-24T11:50:34.651Z,5.24
2023-11-24T11:53:02.120Z,5.72
2023-11-24T11:55:29.952Z,5.72
2023-11-24T11:57:58.150Z,5.40
2023-11-24T12:00:26.676Z,5.79
2023-11-24T12:02:53.931Z,6.03
2023-11-24T12:05:22.922Z,6.11
2023-11-24T12:07:57.005Z,5.97
2023-11-24T12:10:31.505Z,5.82
2023-11-24T12:12:59.880Z,5.59
2023-11-24T12:15:26.471Z,5.78
2023-11-24T12:17:58.253Z,5.94
2023-11-24T12:20:24.913Z,6.27
2023-11-24T12:22:52.071Z,6.54
2023-11-24T12:25:18.939Z,6.63
2023-11-24T12:27:48.413Z,6.36
2023-11-24T12:30:15.545Z,6.10
2023-11-24T12:32:42.357Z,5.58
2023-11-24T12:35:09.564Z,5.62
2023-11-24T12:37:41.425Z,5.44
2023-11-24T12:40:10.763Z,5.07
2023-11-24T12:42:38.313Z,5.00
2023-11-24T12:45:11.925Z,5.33
2023-11-24T12:47:42.000Z,5.27
2023-11-24T12:50:13.043Z,5.09
2023-11-24T12:52:40.398Z,4.99
2023-11-24T12:55:08.857Z,4.84
2023-11-24T12:57:36.047Z,4.99
2023-11-24T13:00:16.266Z,5.32
2023-11-24T13:02:43.494Z,5.62
2023-11-24T13:05:10.820Z,5.60
2023-11-24T13:07:43.969Z,5.94
2023-11-24T13:10:16.066Z,5.84
2023-11-24T13:12:43.143Z,5.81
2023-11-24T13:15:17.753Z,5.36
2023-11-24T13:17:44.366Z,4.87
2023-11-24T13:20:14.817Z,4.70
2023-11-24T13:22:41.677Z,4.47
2023-11-24T13:25:09.740Z,4.38
2023-11-24T13:27:36.679Z,4.35
2023-11-24T13:30:05.020Z,4.23
2023-11-24T13:32:31.589Z,4.21
2023-11-24T13:34:58.596Z,4.08
2023-11-24T13:37:25.174Z,3.97
2023-11-24T13:39:51.650Z,3.79
2023-11-24T13:42:18.716Z,3.80
2023-11-24T13:44:46.285Z,3.44
2023-11-24T13:47:16.151Z,3.29
2023-11-24T13:49:43.512Z,3.21
2023-11-24T13:52:12.519Z,2.68
2023-11-24T13:54:40.704Z,2.61
2023-11-24T13:57:07.179Z,2.60
2023-11-24T13:59:33.668Z,2.61
2023-11-24T14:02:01.293Z,2.46
2023-11-24T14:04:34.077Z,2.36
2023-11-24T14:07:01.906Z,2.23
2023-11-24T14:09:33.388Z,2.24
2023-11-24T14:12:00.519Z,2.19
2023-11-24T14:14:31.001Z,2.11
2023-11-24T14:16:57.479Z,2.10
2023-11-24T14:19:24.025Z,2.05
2023-11-24T14:21:51.236Z,1.99
2023-11-24T14:24:18.926Z,2.00
2023-11-24T14:26:45.955Z,1.92
2023-11-24T14:29:13.565Z,1.90
2023-11-24T14:31:40.929Z,1.86
2023-11-24T14:34:07.974Z,1.74
2023-11-24T14:36:35.069Z,1.65
2023-11-24T14:39:02.757Z,1.69
2023-11-24T14:41:31.919Z,1.72
2023-11-24T14:43:59.051Z,1.61
2023-11-24T14:46:30.616Z,1.54
2023-11-24T14:48:57.666Z,1.57
2023-11-24T14:51:24.246Z,1.58
2023-11-24T14:53:50.956Z,1.44
2023-11-24T14:56:17.807Z,1.45
2023-11-24T14:58:44.621Z,1.44
2023-11-24T15:01:12.748Z,1.40
2023-11-24T15:03:40.815Z,1.37
2023-11-24T15:06:09.497Z,1.38
2023-11-24T15:08:47.663Z,1.36
2023-11-24T15:11:16.624Z,1.41
2023-11-24T15:13:43.647Z,1.37
2023-11-24T15:16:20.076Z,1.42
2023-11-24T15:18:49.377Z,1.35
2023-11-24T15:21:45.450Z,1.34
2023-11-24T15:24:11.925Z,1.29
2023-11-24T15:26:38.510Z,1.31
2023-11-24T15:29:09.309Z,1.32
2023-11-24T15:31:39.634Z,1.27
2023-11-24T15:34:06.472Z,1.30
2023-11-24T15:36:35.084Z,1.24
2023-11-24T15:39:05.357Z,1.29
2023-11-24T15:41:39.084Z,1.24
2023-11-24T15:44:07.985Z,1.28
2023-11-24T15:46:35.195Z,1.19
2023-11-24T15:49:04.731Z,1.19
2023-11-24T15:51:31.462Z,1.19
2023-11-24T15:53:57.901Z,1.13
2023-11-24T15:56:24.862Z,1.09
2023-11-24T15:58:55.770Z,1.11
2023-11-24T16:01:23.043Z,1.09
2023-11-24T16:03:52.911Z,1.10
2023-11-24T16:06:22.955Z,1.02
2023-11-24T16:08:55.729Z,0.98
2023-11-24T16:11:27.889Z,1.01
2023-11-24T16:13:55.115Z,1.02
2023-11-24T16:16:22.470Z,1.06
2023-11-24T16:18:49.054Z,1.05
2023-11-24T16:21:15.506Z,1.01
2023-11-24T16:23:42.482Z,1.00
2023-11-24T16:26:11.069Z,0.97
2023-11-24T16:28:38.339Z,0.92
2023-11-24T16:31:05.789Z,0.90
2023-11-24T16:33:34.206Z,0.82
2023-11-24T16:36:03.576Z,0.75
2023-11-24T16:38:34.076Z,0.88
2023-11-24T16:41:04.417Z,0.71
2023-11-24T16:43:31.104Z,0.74
2023-11-24T16:45:57.739Z,0.72
2023-11-24T16:48:25.820Z,0.71
2023-11-24T16:50:52.354Z,0.71
2023-11-24T16:53:18.965Z,0.67
2023-11-24T16:55:48.766Z,0.64
2023-11-24T16:58:15.489Z,0.58
2023-11-24T17:00:42.862Z,0.42
2023-11-24T17:03:11.992Z,0.50
2023-11-24T17:05:43.019Z,0.30
2023-11-24T17:08:11.097Z,0.16
2023-11-24T17:10:37.790Z,0.12
2023-11-24T17:13:05.884Z,0.14
2023-11-24T17:15:32.479Z,0.23
2023-11-24T17:17:59.464Z,0.26
2023-11-24T17:20:28.741Z,0.32
2023-11-24T17:22:56.821Z,0.36
2023-11-24T17:25:32.268Z,0.35
2023-11-24T17:28:03.599Z,0.44
2023-11-24T17:30:32.471Z,0.40
2023-11-24T17:32:58.967Z,0.44
2023-11-24T17:35:25.752Z,0.47
2023-11-24T17:37:59.819Z,0.52
2023-11-24T17:40:27.895Z,0.52
2023-11-24T17:42:54.605Z,0.35
2023-11-24T17:45:23.047Z,0.33
2023-11-24T17:47:50.653Z,0.29
2023-11-24T17:50:22.390Z,0.34
2023-11-24T17:52:52.186Z,0.21
2023-11-24T17:55:21.981Z,0.14
2023-11-24T17:57:49.650Z,0.13
2023-11-24T18:00:22.824Z,0.16
2023-11-24T18:02:51.170Z,0.23
2023-11-24T18:05:18.147Z,0.34
2023-11-24T18:07:44.814Z,0.34
2023-11-24T18:10:11.427Z,0.43
2023-11-24T18:12:41.101Z,0.48
2023-11-24T18:15:08.185Z,0.50
2023-11-24T18:17:34.918Z,0.54
2023-11-24T18:20:02.080Z,0.48
2023-11-24T18:22:28.781Z,0.49
2023-11-24T18:24:55.534Z,0.56
2023-11-24T18:27:27.338Z,0.57
2023-11-24T18:29:53.897Z,0.61
2023-11-24T18:32:20.481Z,0.60
2023-11-24T18:34:47.125Z,0.61
2023-11-24T18:37:13.813Z,0.62
2023-11-24T18:39:40.301Z,0.63
2023-11-24T18:42:07.112Z,0.36
2023-11-24T18:44:34.596Z,0.30
2023-11-24T18:47:02.761Z,0.43
2023-11-24T18:49:29.710Z,0.49
2023-11-24T18:51:56.612Z,0.51
2023-11-24T18:54:23.297Z,0.46
2023-11-24T18:56:52.881Z,0.44
2023-11-24T18:59:24.636Z,0.49
2023-11-24T19:01:51.328Z,0.53
2023-11-24T19:04:20.762Z,0.52
2023-11-24T19:06:48.871Z,0.56
2023-11-24T19:09:17.355Z,0.57
2023-11-24T19:11:51.244Z,0.62
2023-11-24T19:14:18.867Z,0.64
2023-11-24T19:16:51.781Z,0.66
2023-11-24T19:19:19.041Z,0.65
2023-11-24T19:21:52.981Z,0.55
2023-11-24T19:24:19.860Z,0.58
2023-11-24T19:26:49.261Z,0.62
2023-11-24T19:29:20.291Z,0.63
2023-11-24T19:31:46.951Z,0.66
2023-11-24T19:34:15.057Z,0.65
2023-11-24T19:36:43.040Z,0.66
2023-11-24T19:39:11.901Z,0.61
2023-11-24T19:41:38.587Z,0.63
2023-11-24T19:44:05.464Z,0.63
2023-11-24T19:46:32.185Z,0.61
2023-11-24T19:49:03.196Z,0.56
2023-11-24T19:51:34.867Z,0.62
2023-11-24T19:54:02.514Z,0.62
2023-11-24T19:56:29.128Z,0.65
2023-11-24T19:58:58.025Z,0.64
2023-11-24T20:01:28.504Z,0.66
2023-11-24T20:03:55.101Z,0.72
2023-11-24T20:06:22.673Z,0.71
2023-11-24T20:08:49.480Z,0.69
2023-11-24T20:11:16.318Z,0.70
2023-11-24T20:13:43.046Z,0.69
2023-11-24T20:16:14.677Z,0.67
2023-11-24T20:18:50.481Z,0.65
2023-11-24T20:21:17.191Z,0.63
2023-11-24T20:23:43.770Z,0.56
2023-11-24T20:26:13.361Z,0.53
2023-11-24T20:28:40.475Z,0.55
2023-11-24T20:31:08.103Z,0.50
2023-11-24T20:33:38.462Z,0.49
2023-11-24T20:36:06.719Z,0.45
2023-11-24T20:38:33.344Z,0.47
2023-11-24T20:41:00.068Z,0.39
2023-11-24T20:43:28.819Z,0.39
2023-11-24T20:45:55.344Z,0.45
2023-11-24T20:48:22.045Z,0.42
2023-11-24T20:50:48.708Z,0.40
2023-11-24T20:53:15.482Z,0.35
2023-11-24T20:55:42.426Z,0.42
2023-11-24T20:58:08.980Z,0.40
2023-11-24T21:00:35.604Z,0.41
2023-11-24T21:03:02.314Z,0.36
2023-11-24T21:05:28.825Z,0.33
2023-11-24T21:07:55.701Z,0.35
2023-11-24T21:10:22.719Z,0.36
2023-11-24T21:12:50.439Z,0.37
2023-11-24T21:15:19.102Z,0.38
2023-11-24T21:17:46.413Z,0.35
2023-11-24T21:20:15.127Z,0.34
2023-11-24T21:22:41.817Z,0.29
2023-11-24T21:25:08.369Z,0.30
2023-11-24T21:27:36.421Z,0.29
2023-11-24T21:30:03.095Z,0.30
2023-11-24T21:32:31.415Z,0.32
2023-11-24T21:34:58.807Z,0.30
2023-11-24T21:37:29.528Z,0.25
2023-11-24T21:40:01.936Z,0.28
2023-11-24T21:42:31.860Z,0.25
2023-11-24T21:44:58.424Z,0.20
2023-11-24T21:47:25.151Z,0.20
2023-11-24T21:49:51.737Z,0.21
2023-11-24T21:52:18.148Z,0.21
2023-11-24T21:54:47.542Z,0.20
2023-11-24T21:57:15.152Z,0.22
2023-11-24T21:59:41.817Z,0.24
2023-11-24T22:02:08.450Z,0.28
2023-11-24T22:04:34.957Z,0.19
2023-11-24T22:07:01.916Z,0.24
2023-11-24T22:09:28.345Z,0.29
2023-11-24T22:11:54.780Z,0.30
2023-11-24T22:14:23.119Z,0.29
2023-11-24T22:16:50.373Z,0.29
2023-11-24T22:19:17.836Z,0.23
2023-11-24T22:21:44.254Z,0.22
2023-11-24T22:24:11.011Z,0.25
2023-11-24T22:26:39.164Z,0.22
2023-11-24T22:29:05.807Z,0.20
2023-11-24T22:31:32.459Z,0.19
2023-11-24T22:33:58.916Z,0.17
2023-11-24T22:36:25.334Z,0.16
2023-11-24T22:38:51.780Z,0.13
2023-11-24T22:41:18.914Z,0.06
2023-11-24T22:43:45.600Z,0.08
2023-11-24T22:46:18.878Z,-0.01
2023-11-24T22:48:45.402Z,-0.03
2023-11-24T22:51:18.778Z,-0.08
2023-11-24T22:53:45.204Z,-0.07
2023-11-24T22:56:23.660Z,-0.07
2023-11-24T22:58:55.770Z,-0.03
2023-11-24T23:01:23.252Z,-0.07
2023-11-24T23:03:50.512Z,-0.03
2023-11-24T23:06:19.044Z,-0.08
2023-11-24T23:08:46.403Z,-0.08
2023-11-24T23:11:19.506Z,-0.07
2023-11-24T23:13:47.797Z,-0.18
2023-11-24T23:16:14.818Z,-0.16
2023-11-24T23:18:41.642Z,-0.22
2023-11-24T23:21:10.289Z,-0.21
2023-11-24T23:23:37.077Z,-0.23
2023-11-24T23:26:05.153Z,-0.24
2023-11-24T23:28:32.354Z,-0.26
2023-11-24T23:31:00.067Z,-0.31
2023-11-24T23:33:26.864Z,-0.34
2023-11-24T23:35:53.586Z,-0.42
2023-11-24T23:38:23.068Z,-0.38
2023-11-24T23:40:49.656Z,-0.48
2023-11-24T23:43:16.214Z,-0.40
2023-11-24T23:45:42.845Z,-0.44
2023-11-24T23:48:09.657Z,-0.45
2023-11-24T23:50:36.157Z,-0.47
2023-11-24T23:53:04.841Z,-0.47
2023-11-24T23:55:31.293Z,-0.42
2023-11-24T23:57:57.783Z,-0.42
